»·PEaware :: QFA960 YMML-YSSY

QFA960 :: YMML-YSSY

FLIGHT INFORMATION

Flight Status: Arrived
Operator:
Qantas Airways
More flights by this operator :: More flights under this callsign
Pilot: Xrossy S. (22808)
Aircraft: BOEING 737-800
(B738)
More flights by this aircraft type
Origin: YMML Melbourne Intl
Australia
Destination: YSSY Kingsford Smith Intl
Australia
More flights between these airports :: More routes between these airports
Route: YMML DOSEL W569 AY W817 AKMIR W113 ODALE YSSY
File this flight plan on PilotEdge
Remarks: Sample flight plan
Altitude:
(Current/Filed)
10,000ft
Speed:
(Current/Filed)
115kts
Departed: 01-Jan-19 07:51 PM
Arrived: 01-Jan-19 09:20 PM
Distance/Time
Traveled:
381nm/1:29
Distance/Time
To Go:
Arrived

Flight Plot

Page will automatically refresh every two minutes.

Flight plan parsing failed; only flown route is shown


Map Options




Map Legend


Flown Route
Filed Route
Departure Airport
Arrival Airport
Navaid (VOR, NDB)
Fix

Horizontal Profiles

Position Reports

Time Latitude Longitude Heading Altitude Ground
Speed
01-Jan-19 19:49 -37.666049 144.848278 346 440ft 0kts
01-Jan-19 19:50 -37.663362 144.847843 4 440ft 14kts
01-Jan-19 19:51 -37.661727 144.838306 273 441ft 114kts
01-Jan-19 19:52 -37.656655 144.785287 280 1595ft 195kts
01-Jan-19 19:52 -37.649257 144.729994 277 3328ft 207kts
01-Jan-19 19:54 -37.595134 144.703175 18 5249ft 235kts
01-Jan-19 19:54 -37.537745 144.725963 8 5470ft 296kts
01-Jan-19 19:55 -37.469085 144.760597 38 6340ft 307kts
01-Jan-19 19:57 -37.413547 144.860607 71 6328ft 344kts
01-Jan-19 19:57 -37.407578 144.952606 88 6288ft 349kts
01-Jan-19 19:58 -37.399784 145.064579 74 6208ft 355kts
01-Jan-19 19:59 -37.351766 145.160964 51 5994ft 363kts
01-Jan-19 20:01 -37.280672 145.261719 48 5176ft 355kts
01-Jan-19 20:01 -37.227666 145.326811 43 4950ft 335kts
01-Jan-19 20:02 -37.172527 145.387146 41 4727ft 323kts
01-Jan-19 20:03 -37.123146 145.467750 56 4393ft 318kts
01-Jan-19 20:04 -37.075740 145.550939 53 4139ft 317kts
01-Jan-19 20:05 -37.030909 145.628867 53 5021ft 286kts
01-Jan-19 20:06 -36.990464 145.699126 51 5991ft 261kts
01-Jan-19 20:07 -36.950382 145.768409 51 6009ft 283kts
01-Jan-19 20:08 -36.905957 145.845009 51 6027ft 317kts
01-Jan-19 20:09 -36.855512 145.931797 52 6008ft 350kts
01-Jan-19 20:10 -36.802117 146.023498 52 6003ft 366kts
01-Jan-19 20:11 -36.747092 146.117790 52 5996ft 364kts
01-Jan-19 20:12 -36.692805 146.210573 52 5999ft 356kts
01-Jan-19 20:13 -36.639074 146.302127 52 6000ft 353kts
01-Jan-19 20:14 -36.597996 146.371951 52 6001ft 352kts
01-Jan-19 20:15 -36.551232 146.451260 52 6001ft 351kts
01-Jan-19 20:16 -36.497670 146.541868 52 6002ft 352kts
01-Jan-19 20:17 -36.449961 146.622375 52 6002ft 352kts
01-Jan-19 20:18 -36.425453 146.663662 51 5999ft 352kts
01-Jan-19 20:19 -36.388903 146.725179 51 5995ft 350kts
01-Jan-19 20:20 -36.368044 146.760240 51 5995ft 349kts
01-Jan-19 20:21 -36.315117 146.849020 51 5998ft 347kts
01-Jan-19 20:22 -36.262185 146.937552 51 6000ft 347kts
01-Jan-19 20:23 -36.209988 147.024613 51 6000ft 347kts
01-Jan-19 20:24 -36.161069 147.105995 51 6000ft 347kts
01-Jan-19 20:25 -36.111791 147.187773 51 5999ft 346kts
01-Jan-19 20:26 -36.060099 147.273836 51 6569ft 327kts
01-Jan-19 20:27 -36.009083 147.357854 51 5966ft 322kts
01-Jan-19 20:28 -35.961732 147.435891 50 6446ft 287kts
01-Jan-19 20:29 -35.922725 147.500140 50 7480ft 235kts
01-Jan-19 20:30 -35.884533 147.562479 50 7524ft 282kts
01-Jan-19 20:31 -35.839510 147.636013 50 7497ft 323kts
01-Jan-19 20:32 -35.792571 147.712689 50 7390ft 348kts
01-Jan-19 20:33 -35.766704 147.754917 50 7357ft 352kts
01-Jan-19 20:34 -35.740769 147.797189 50 7325ft 355kts
01-Jan-19 20:35 -35.697366 147.867829 50 7304ft 357kts
01-Jan-19 20:36 -35.645169 147.952598 50 7299ft 355kts
01-Jan-19 20:37 -35.590625 148.040957 49 7299ft 352kts
01-Jan-19 20:38 -35.557196 148.094947 50 7303ft 350kts
01-Jan-19 20:39 -35.503382 148.181732 50 7357ft 351kts
01-Jan-19 20:40 -35.448055 148.270674 50 7355ft 360kts
01-Jan-19 20:41 -35.407346 148.335976 50 7340ft 364kts
01-Jan-19 20:42 -35.363851 148.405663 50 7340ft 364kts
01-Jan-19 20:43 -35.317229 148.480165 50 7371ft 364kts
01-Jan-19 20:44 -35.268096 148.558514 50 7406ft 363kts
01-Jan-19 20:45 -35.218279 148.637776 50 7414ft 363kts
01-Jan-19 20:46 -35.169227 148.715671 50 7411ft 364kts
01-Jan-19 20:47 -35.115060 148.801498 50 7411ft 364kts
01-Jan-19 20:48 -35.072156 148.869330 50 7411ft 364kts
01-Jan-19 20:49 -35.030883 148.934453 50 7411ft 366kts
01-Jan-19 20:50 -34.974139 149.023763 50 7412ft 366kts
01-Jan-19 20:51 -34.916871 149.113662 50 7413ft 367kts
01-Jan-19 20:52 -34.861904 149.199740 51 7412ft 366kts
01-Jan-19 20:53 -34.804362 149.289642 51 7412ft 366kts
01-Jan-19 20:54 -34.746866 149.379242 51 7413ft 365kts
01-Jan-19 20:55 -34.707431 149.462940 63 7415ft 366kts
01-Jan-19 20:56 -34.664696 149.562491 61 7447ft 366kts
01-Jan-19 20:57 -34.627057 149.648527 62 7522ft 378kts
01-Jan-19 20:58 -34.581947 149.751396 62 7548ft 385kts
01-Jan-19 20:59 -34.535612 149.856753 62 7557ft 382kts
01-Jan-19 21:00 -34.490872 149.958157 62 7558ft 381kts
01-Jan-19 21:01 -34.490188 149.959704 62 7558ft 381kts
01-Jan-19 21:02 -34.445735 150.060098 62 7463ft 383kts
01-Jan-19 21:03 -34.399859 150.163420 62 7471ft 382kts
01-Jan-19 21:04 -34.352682 150.263409 57 7524ft 382kts
01-Jan-19 21:05 -34.309563 150.360819 64 7835ft 368kts
01-Jan-19 21:06 -34.268843 150.456596 63 7879ft 364kts
01-Jan-19 21:07 -34.222970 150.553257 48 7597ft 374kts
01-Jan-19 21:08 -34.150689 150.614982 27 6516ft 343kts
01-Jan-19 21:09 -34.083822 150.666324 42 5120ft 310kts
01-Jan-19 21:10 -34.033156 150.740381 53 2686ft 302kts
01-Jan-19 21:11 -33.997873 150.804123 64 2207ft 221kts
01-Jan-19 21:12 -33.978478 150.864508 77 1226ft 209kts
01-Jan-19 21:13 -33.976086 150.921087 97 593ft 165kts
01-Jan-19 21:14 -33.979004 150.967568 79 813ft 145kts
01-Jan-19 21:15 -33.969619 151.014751 75 793ft 161kts
01-Jan-19 21:16 -33.960063 151.063964 76 777ft 160kts
01-Jan-19 21:17 -33.953246 151.111007 89 719ft 152kts
01-Jan-19 21:18 -33.945022 151.157846 75 209ft 164kts
01-Jan-19 21:19 -33.940325 151.178419 69 11ft 8kts
01-Jan-19 21:20 -33.938792 151.182829 342 22ft 11kts
01-Jan-19 21:21 -33.937039 151.180641 337 18ft 6kts
01-Jan-19 21:22 -33.936777 151.179797 280 16ft 0kts
01-Jan-19 21:23 -33.936777 151.179797 280 16ft 0kts
01-Jan-19 21:24 -34.367623 150.235821 57 7869ft 371kts
01-Jan-19 21:25 -33.936777 151.179797 280 16ft 0kts
01-Jan-19 21:26 -33.953344 151.102378 89 680ft 156kts
01-Jan-19 21:27 -33.945549 151.155597 74 250ft 166kts
01-Jan-19 21:28 -33.940370 151.178286 66 11ft 6kts
01-Jan-19 21:29 -33.937574 151.181255 266 18ft 11kts

Navigation Log

Ident Type
Flight plan parsing failed, navigation log unavailable